Time;durP1;ratioP1;P1;durP2;ratioP2;P2;SDS_P1;SDS_P2;PMS_P1;PMS_P2;Temp;Humidity;BMP_temperature;BMP_pressure;BME280_temperature;BME280_humidity;BME280_pressure;Samples;Min_cycle;Max_cycle;Signal;HPM_P1;HPM_P2
2022/10/03 00:01:37;;;;;;;0.90;0.90;;;;;;;;;;4963086;28;20091;-61
2022/10/03 00:04:29;;;;;;;1.13;1.13;;;;;;;;;;4959574;28;20031;-61
2022/10/03 00:07:15;;;;;;;0.95;0.95;;;;;;;;;;4964027;28;20554;-62
2022/10/03 00:09:43;;;;;;;3.50;0.90;;;;;;;;;;4964278;28;20081;-60
2022/10/03 00:12:08;;;;;;;0.95;0.95;;;;;;;;;;4963573;28;20074;-60
2022/10/03 00:14:46;;;;;;;0.90;0.90;;;;;;;;;;4962692;28;20034;-62
2022/10/03 00:17:15;;;;;;;3.03;1.35;;;;;;;;;;4963949;28;20084;-61
2022/10/03 00:20:06;;;;;;;1.13;1.02;;;;;;;;;;4962106;28;20058;-60
2022/10/03 00:22:31;;;;;;;1.75;1.10;;;;;;;;;;4959018;28;20047;-61
2022/10/03 00:25:00;;;;;;;1.00;1.00;;;;;;;;;;4962823;28;20037;-61
2022/10/03 00:27:31;;;;;;;1.38;1.25;;;;;;;;;;4965082;28;20027;-61
2022/10/03 00:29:59;;;;;;;1.00;1.00;;;;;;;;;;4965705;28;20637;-61
2022/10/03 00:32:32;;;;;;;2.75;1.23;;;;;;;;;;4962090;28;20022;-61
2022/10/03 00:35:17;;;;;;;1.52;1.30;;;;;;;;;;4962013;28;20026;-62
2022/10/03 00:37:53;;;;;;;3.75;1.60;;;;;;;;;;4963143;28;20082;-63
2022/10/03 00:40:19;;;;;;;1.52;1.40;;;;;;;;;;4963203;28;20050;-62
2022/10/03 00:42:53;;;;;;;1.58;1.05;;;;;;;;;;4964556;28;20579;-62
2022/10/03 00:45:18;;;;;;;1.40;1.30;;;;;;;;;;4962251;28;20031;-62
2022/10/03 00:48:01;;;;;;;1.23;1.23;;;;;;;;;;4962297;28;20089;-63
2022/10/03 00:50:36;;;;;;;1.02;1.02;;;;;;;;;;4963543;28;20058;-62
2022/10/03 00:53:09;;;;;;;2.97;1.10;;;;;;;;;;4962646;28;20031;-62
2022/10/03 00:55:42;;;;;;;1.20;1.20;;;;;;;;;;4961398;28;20038;-62
2022/10/03 00:58:23;;;;;;;1.13;1.02;;;;;;;;;;4963474;28;20029;-61
2022/10/03 01:00:49;;;;;;;2.42;1.42;;;;;;;;;;4963069;28;20022;-68
2022/10/03 01:03:23;;;;;;;1.70;1.58;;;;;;;;;;4962067;28;20029;-62
2022/10/03 01:05:57;;;;;;;1.38;1.20;;;;;;;;;;4963691;28;20431;-62
2022/10/03 01:08:25;;;;;;;1.30;1.20;;;;;;;;;;4962173;28;20053;-63
2022/10/03 01:11:17;;;;;;;3.30;1.42;;;;;;;;;;4962267;28;20600;-60
2022/10/03 01:14:01;;;;;;;1.33;1.23;;;;;;;;;;4964235;28;20058;-62
2022/10/03 01:16:41;;;;;;;2.92;1.10;;;;;;;;;;4961522;28;20031;-63
2022/10/03 01:19:26;;;;;;;1.98;1.88;;;;;;;;;;4961113;28;20061;-62
2022/10/03 01:22:03;;;;;;;1.17;1.17;;;;;;;;;;4961159;28;20019;-61
2022/10/03 01:24:47;;;;;;;1.50;1.40;;;;;;;;;;4964422;28;20042;-61
2022/10/03 01:27:15;;;;;;;2.25;1.65;;;;;;;;;;4962205;28;20027;-62
2022/10/03 01:32:44;;;;;;;1.77;1.67;;;;;;;;;;4960186;28;20037;-62
2022/10/03 01:35:41;;;;;;;1.70;1.60;;;;;;;;;;4960765;28;20382;-60
2022/10/03 01:38:18;;;;;;;2.08;1.50;;;;;;;;;;4951206;28;20038;-61
2022/10/03 01:40:49;;;;;;;1.70;1.60;;;;;;;;;;4959512;28;20159;-62
2022/10/03 01:43:19;;;;;;;1.63;1.45;;;;;;;;;;4965588;28;20041;-61
2022/10/03 01:46:00;;;;;;;2.08;1.98;;;;;;;;;;4961660;28;20117;-61
2022/10/03 01:48:31;;;;;;;1.65;1.55;;;;;;;;;;4959161;28;20062;-61
2022/10/03 01:50:56;;;;;;;2.92;2.03;;;;;;;;;;4959102;28;20451;-60
2022/10/03 01:53:47;;;;;;;1.60;1.50;;;;;;;;;;4961050;28;20031;-62
2022/10/03 01:56:13;;;;;;;1.90;1.80;;;;;;;;;;4886937;29;20044;-63
2022/10/03 01:58:48;;;;;;;1.92;1.73;;;;;;;;;;4888293;29;20451;-61
2022/10/03 02:01:32;;;;;;;2.40;1.35;;;;;;;;;;4887911;29;20062;-61
2022/10/03 02:04:09;;;;;;;1.73;1.63;;;;;;;;;;4889416;29;20036;-61
2022/10/03 02:06:52;;;;;;;2.58;1.75;;;;;;;;;;4884728;29;20044;-62
2022/10/03 02:09:23;;;;;;;2.80;1.90;;;;;;;;;;4887390;29;20028;-61
2022/10/03 02:11:49;;;;;;;2.42;2.00;;;;;;;;;;4887982;29;20060;-61
2022/10/03 02:14:17;;;;;;;2.10;2.00;;;;;;;;;;4887680;29;20068;-61
2022/10/03 02:16:51;;;;;;;3.33;3.03;;;;;;;;;;4889702;29;20123;-61
2022/10/03 02:19:43;;;;;;;3.43;1.60;;;;;;;;;;4889722;29;20126;-62
2022/10/03 02:22:27;;;;;;;1.88;1.77;;;;;;;;;;4871870;29;20699;-61
2022/10/03 02:25:01;;;;;;;1.98;1.80;;;;;;;;;;4888850;29;20395;-61
2022/10/03 02:27:26;;;;;;;1.90;1.58;;;;;;;;;;4890035;29;20080;-60
2022/10/03 02:30:10;;;;;;;4.03;2.10;;;;;;;;;;4886670;29;20080;-61
2022/10/03 02:32:51;;;;;;;2.50;2.30;;;;;;;;;;4907266;28;20030;-60
2022/10/03 02:35:22;;;;;;;2.10;1.90;;;;;;;;;;4963065;28;20620;-61
2022/10/03 02:37:59;;;;;;;3.88;2.13;;;;;;;;;;4962795;28;20023;-60
2022/10/03 02:40:31;;;;;;;3.55;2.05;;;;;;;;;;4958250;28;20035;-61
2022/10/03 02:43:09;;;;;;;2.00;1.90;;;;;;;;;;4957055;28;20123;-60
2022/10/03 02:45:34;;;;;;;2.08;1.75;;;;;;;;;;4960078;28;20030;-61
2022/10/03 02:48:02;;;;;;;1.90;1.80;;;;;;;;;;4965629;28;20030;-60
2022/10/03 02:50:37;;;;;;;6.05;2.03;;;;;;;;;;4963747;28;20038;-60
2022/10/03 02:53:32;;;;;;;3.85;2.00;;;;;;;;;;4960601;28;20042;-61
2022/10/03 02:56:20;;;;;;;1.53;1.43;;;;;;;;;;4964112;28;20469;-61
2022/10/03 02:58:55;;;;;;;3.65;2.05;;;;;;;;;;4892939;29;20315;-61
2022/10/03 03:01:39;;;;;;;1.88;1.75;;;;;;;;;;4894416;29;20176;-61
2022/10/03 03:04:23;;;;;;;2.38;1.60;;;;;;;;;;4890878;29;20171;-61
2022/10/03 03:06:51;;;;;;;2.35;1.98;;;;;;;;;;4889082;29;20468;-62
2022/10/03 03:09:35;;;;;;;2.55;1.60;;;;;;;;;;4889864;29;20064;-62
2022/10/03 03:12:01;;;;;;;1.80;1.70;;;;;;;;;;4890500;29;20059;-62
2022/10/03 03:14:28;;;;;;;1.77;1.67;;;;;;;;;;4890618;29;20040;-62
2022/10/03 03:17:11;;;;;;;3.08;1.85;;;;;;;;;;4891695;29;20059;-63
2022/10/03 03:19:55;;;;;;;1.65;1.50;;;;;;;;;;4892775;29;20028;-61
2022/10/03 03:22:24;;;;;;;1.90;1.80;;;;;;;;;;4892229;29;20036;-61
2022/10/03 03:24:49;;;;;;;2.00;1.80;;;;;;;;;;4889238;29;20086;-62
2022/10/03 03:27:23;;;;;;;2.60;1.63;;;;;;;;;;4889261;29;20151;-62
2022/10/03 03:29:54;;;;;;;1.77;1.50;;;;;;;;;;4890822;29;20045;-62
2022/10/03 03:32:20;;;;;;;2.97;1.67;;;;;;;;;;4891656;29;20123;-61
2022/10/03 03:34:46;;;;;;;2.35;1.88;;;;;;;;;;4895262;28;21015;-62
2022/10/03 03:37:37;;;;;;;4.55;1.70;;;;;;;;;;4959523;28;20062;-61
2022/10/03 03:40:02;;;;;;;3.55;1.85;;;;;;;;;;4924061;29;20035;-61
2022/10/03 03:42:46;;;;;;;2.55;1.98;;;;;;;;;;4924983;29;20044;-62
2022/10/03 03:45:12;;;;;;;2.63;1.92;;;;;;;;;;4928218;29;20047;-61
2022/10/03 03:47:49;;;;;;;2.28;1.67;;;;;;;;;;4924448;29;20140;-61
2022/10/03 03:50:14;;;;;;;3.58;1.98;;;;;;;;;;4925591;29;20040;-61
2022/10/03 03:52:42;;;;;;;3.40;1.95;;;;;;;;;;4924178;29;20051;-61
2022/10/03 03:55:07;;;;;;;1.92;1.77;;;;;;;;;;4923333;29;20043;-63
2022/10/03 03:57:59;;;;;;;2.72;2.10;;;;;;;;;;4923016;29;20044;-63
2022/10/03 04:00:39;;;;;;;2.75;2.10;;;;;;;;;;4924483;29;20063;-63
2022/10/03 04:03:08;;;;;;;3.00;1.67;;;;;;;;;;4924373;29;20023;-61
2022/10/03 04:05:52;;;;;;;3.60;1.85;;;;;;;;;;4922500;29;20039;-63
2022/10/03 04:08:39;;;;;;;1.83;1.73;;;;;;;;;;4923839;29;20064;-63
2022/10/03 04:11:11;;;;;;;2.50;1.70;;;;;;;;;;4921263;29;20047;-62
2022/10/03 04:13:46;;;;;;;2.03;1.88;;;;;;;;;;4906067;29;20627;-63
2022/10/03 04:19:33;;;;;;;1.92;1.83;;;;;;;;;;4963615;28;20026;-63
2022/10/03 04:22:14;;;;;;;2.65;1.80;;;;;;;;;;4961191;28;20512;-62
2022/10/03 04:24:55;;;;;;;5.95;2.30;;;;;;;;;;4962449;28;20117;-65
2022/10/03 04:27:36;;;;;;;1.80;1.70;;;;;;;;;;4963732;28;20083;-63
2022/10/03 04:30:13;;;;;;;1.90;1.80;;;;;;;;;;4962740;28;20031;-62
2022/10/03 04:32:38;;;;;;;2.28;2.08;;;;;;;;;;4961945;28;20088;-61
2022/10/03 04:35:22;;;;;;;2.13;1.92;;;;;;;;;;4965324;28;20046;-61
2022/10/03 04:38:03;;;;;;;2.45;1.80;;;;;;;;;;4963844;28;20035;-63
2022/10/03 04:40:47;;;;;;;3.15;1.95;;;;;;;;;;4965852;28;20081;-61
2022/10/03 04:43:17;;;;;;;3.00;2.35;;;;;;;;;;4961054;28;20046;-61
2022/10/03 04:45:52;;;;;;;2.33;2.05;;;;;;;;;;4960860;28;20039;-62
2022/10/03 04:48:22;;;;;;;2.72;2.00;;;;;;;;;;4960617;28;20489;-61
2022/10/03 04:50:49;;;;;;;1.90;1.80;;;;;;;;;;4962770;28;20038;-60
2022/10/03 04:53:26;;;;;;;2.58;2.38;;;;;;;;;;4963222;28;20421;-62
2022/10/03 04:55:52;;;;;;;2.85;1.60;;;;;;;;;;4961460;28;20126;-63
2022/10/03 04:58:43;;;;;;;4.22;2.17;;;;;;;;;;4960778;28;20080;-62
2022/10/03 05:01:11;;;;;;;2.03;1.80;;;;;;;;;;4885542;29;20044;-62
2022/10/03 05:03:46;;;;;;;5.47;2.00;;;;;;;;;;4888020;29;20096;-62
2022/10/03 05:06:17;;;;;;;6.13;1.70;;;;;;;;;;4884961;29;20044;-62
2022/10/03 05:08:54;;;;;;;1.50;1.40;;;;;;;;;;4884357;29;20388;-67
2022/10/03 05:11:35;;;;;;;1.98;1.88;;;;;;;;;;4886029;29;20051;-62
2022/10/03 05:14:10;;;;;;;2.20;2.00;;;;;;;;;;4886905;29;20060;-61
2022/10/03 05:16:47;;;;;;;2.88;1.55;;;;;;;;;;4887440;29;20407;-63
2022/10/03 05:19:18;;;;;;;3.08;2.03;;;;;;;;;;4885278;29;20033;-62
2022/10/03 05:21:47;;;;;;;3.38;1.88;;;;;;;;;;4886248;29;20127;-62
2022/10/03 05:24:18;;;;;;;4.35;1.92;;;;;;;;;;4884426;29;20067;-61
2022/10/03 05:26:46;;;;;;;2.15;2.05;;;;;;;;;;4885426;29;20069;-61
2022/10/03 05:29:17;;;;;;;4.18;1.85;;;;;;;;;;4883933;29;20111;-62
2022/10/03 05:31:57;;;;;;;3.70;1.80;;;;;;;;;;4884992;29;20040;-62
2022/10/03 05:34:32;;;;;;;2.03;1.70;;;;;;;;;;4886650;29;20036;-65
2022/10/03 05:37:01;;;;;;;3.78;2.15;;;;;;;;;;4886807;28;20129;-63
2022/10/03 05:39:36;;;;;;;1.75;1.60;;;;;;;;;;4960640;28;20093;-63
2022/10/03 05:42:04;;;;;;;1.65;1.55;;;;;;;;;;4959497;28;20034;-63
2022/10/03 05:44:55;;;;;;;3.28;1.90;;;;;;;;;;4962689;28;20482;-63
2022/10/03 05:47:45;;;;;;;1.88;1.77;;;;;;;;;;4927268;29;20043;-63
2022/10/03 05:50:26;;;;;;;5.55;2.45;;;;;;;;;;4925475;29;20027;-62
2022/10/03 05:53:10;;;;;;;2.03;1.92;;;;;;;;;;4927048;29;20058;-62
2022/10/03 05:55:35;;;;;;;3.05;1.88;;;;;;;;;;4927070;29;20609;-64
2022/10/03 05:58:00;;;;;;;1.98;1.55;;;;;;;;;;4923652;29;20065;-64
2022/10/03 06:00:45;;;;;;;4.15;2.13;;;;;;;;;;4927368;29;20135;-64
2022/10/03 06:03:40;;;;;;;3.20;1.50;;;;;;;;;;4926562;29;20142;-64
2022/10/03 06:06:06;;;;;;;2.87;1.60;;;;;;;;;;4927146;29;20063;-64
2022/10/03 06:08:48;;;;;;;4.20;1.80;;;;;;;;;;4926195;29;20032;-64
2022/10/03 06:11:33;;;;;;;2.10;1.52;;;;;;;;;;4925847;29;20047;-63
2022/10/03 06:14:07;;;;;;;1.92;1.38;;;;;;;;;;4925995;29;20031;-63
2022/10/03 06:16:32;;;;;;;2.80;1.45;;;;;;;;;;4924334;29;20248;-62
2022/10/03 06:19:02;;;;;;;3.22;1.80;;;;;;;;;;4923315;28;20046;-62
2022/10/03 06:21:31;;;;;;;5.85;1.98;;;;;;;;;;4927571;29;20035;-62
2022/10/03 06:24:00;;;;;;;5.07;2.28;;;;;;;;;;4941619;28;20039;-62
2022/10/03 06:26:38;;;;;;;2.80;1.40;;;;;;;;;;4962581;28;20026;-63
2022/10/03 06:29:23;;;;;;;1.73;1.55;;;;;;;;;;4963535;28;20065;-62
2022/10/03 06:32:01;;;;;;;2.20;2.00;;;;;;;;;;4962016;28;20027;-62
2022/10/03 06:34:49;;;;;;;2.45;1.90;;;;;;;;;;4963674;28;20478;-67
2022/10/03 06:37:17;;;;;;;3.75;1.90;;;;;;;;;;4926259;29;20074;-65
2022/10/03 06:39:57;;;;;;;2.30;1.52;;;;;;;;;;4925515;29;20039;-66
2022/10/03 06:42:35;;;;;;;3.50;2.03;;;;;;;;;;4924689;29;20158;-67
2022/10/03 06:45:00;;;;;;;3.45;1.85;;;;;;;;;;4924074;29;20031;-67
2022/10/03 06:47:46;;;;;;;2.85;1.90;;;;;;;;;;4923671;29;20027;-67
2022/10/03 06:50:17;;;;;;;1.92;1.73;;;;;;;;;;4923917;29;20027;-66
2022/10/03 06:52:51;;;;;;;3.88;2.15;;;;;;;;;;4924856;29;20036;-66
2022/10/03 06:55:22;;;;;;;4.10;1.80;;;;;;;;;;4925307;29;20502;-66
2022/10/03 06:58:06;;;;;;;5.07;2.10;;;;;;;;;;4920840;29;20036;-63
2022/10/03 07:00:51;;;;;;;8.18;2.08;;;;;;;;;;4923325;29;20059;-63
2022/10/03 07:03:30;;;;;;;6.20;1.70;;;;;;;;;;4922611;29;20029;-62
2022/10/03 07:06:14;;;;;;;2.33;1.25;;;;;;;;;;4923003;29;20039;-63
2022/10/03 07:08:57;;;;;;;6.65;1.58;;;;;;;;;;4921865;29;20044;-66
2022/10/03 07:11:29;;;;;;;3.50;1.80;;;;;;;;;;4924192;28;20102;-60
2022/10/03 07:13:55;;;;;;;5.47;2.08;;;;;;;;;;4938683;28;20042;-63
2022/10/03 07:16:40;;;;;;;1.60;1.48;;;;;;;;;;4962595;28;20467;-65
2022/10/03 07:19:25;;;;;;;4.20;1.85;;;;;;;;;;4962558;28;20106;-62
2022/10/03 07:22:02;;;;;;;2.25;1.60;;;;;;;;;;4964444;28;20487;-62
2022/10/03 07:24:40;;;;;;;1.67;1.58;;;;;;;;;;4966070;28;20054;-62
2022/10/03 07:27:15;;;;;;;2.17;1.98;;;;;;;;;;4961132;28;20016;-62
2022/10/03 07:30:00;;;;;;;2.60;1.70;;;;;;;;;;4960483;28;20067;-63
2022/10/03 07:32:35;;;;;;;2.30;1.80;;;;;;;;;;4967009;28;20051;-62
2022/10/03 07:35:00;;;;;;;;;;;;;;;;;;4965227;28;20065;-62
2022/10/03 07:40:27;;;;;;;5.00;2.20;;;;;;;;;;4962007;28;20589;-63
2022/10/03 07:43:04;;;;;;;5.05;2.17;;;;;;;;;;4965780;28;20047;-62
2022/10/03 07:45:33;;;;;;;2.92;2.35;;;;;;;;;;4960596;28;20431;-62
2022/10/03 07:48:01;;;;;;;3.88;2.25;;;;;;;;;;4963406;28;20634;-63
2022/10/03 07:50:39;;;;;;;2.97;1.95;;;;;;;;;;4963724;28;20174;-63
2022/10/03 07:53:18;;;;;;;4.57;2.20;;;;;;;;;;4965177;28;20046;-64
2022/10/03 07:55:56;;;;;;;4.10;1.98;;;;;;;;;;4965486;28;20446;-64
2022/10/03 07:58:28;;;;;;;2.70;2.05;;;;;;;;;;4965902;28;20243;-63
2022/10/03 08:01:12;;;;;;;3.92;1.80;;;;;;;;;;4963259;28;21076;-62
2022/10/03 08:03:56;;;;;;;2.70;2.00;;;;;;;;;;4960089;28;20027;-63
2022/10/03 08:06:36;;;;;;;5.95;2.28;;;;;;;;;;4964770;28;20030;-66
2022/10/03 08:09:21;;;;;;;3.50;2.28;;;;;;;;;;4963410;28;20041;-62
2022/10/03 08:12:05;;;;;;;2.35;1.83;;;;;;;;;;4959499;28;20059;-62
2022/10/03 08:14:42;;;;;;;5.35;2.10;;;;;;;;;;4965013;28;20034;-63
2022/10/03 08:17:10;;;;;;;2.72;1.88;;;;;;;;;;4962421;28;20074;-63
2022/10/03 08:19:35;;;;;;;3.72;2.00;;;;;;;;;;4961753;28;20030;-62
2022/10/03 08:22:09;;;;;;;3.25;2.15;;;;;;;;;;4964592;28;20162;-62
2022/10/03 08:24:44;;;;;;;2.70;2.10;;;;;;;;;;4965732;28;20035;-64
2022/10/03 08:27:12;;;;;;;7.75;1.95;;;;;;;;;;4960509;28;20093;-62
2022/10/03 08:29:37;;;;;;;4.05;1.83;;;;;;;;;;4962767;28;20921;-64
2022/10/03 08:32:21;;;;;;;3.75;2.20;;;;;;;;;;4962661;28;20042;-62
2022/10/03 08:34:56;;;;;;;2.38;1.90;;;;;;;;;;4963369;28;20035;-62
2022/10/03 08:37:43;;;;;;;1.83;1.70;;;;;;;;;;4964170;28;20073;-61
2022/10/03 08:40:34;;;;;;;3.42;1.60;;;;;;;;;;4960605;28;20034;-64
2022/10/03 08:43:19;;;;;;;2.90;1.60;;;;;;;;;;4923742;29;20426;-62
2022/10/03 08:45:50;;;;;;;4.05;1.70;;;;;;;;;;4924694;29;20047;-63
2022/10/03 08:48:34;;;;;;;2.70;2.25;;;;;;;;;;4921975;29;20380;-63
2022/10/03 08:51:00;;;;;;;2.90;1.77;;;;;;;;;;4923958;29;20056;-64
2022/10/03 08:53:47;;;;;;;4.15;2.00;;;;;;;;;;4923895;29;20607;-62
2022/10/03 08:56:15;;;;;;;2.08;1.88;;;;;;;;;;4920438;29;20062;-69
2022/10/03 08:58:58;;;;;;;3.95;1.88;;;;;;;;;;4921072;29;20483;-66
2022/10/03 09:01:50;;;;;;;3.08;1.80;;;;;;;;;;4925123;29;20032;-65
2022/10/03 09:04:24;;;;;;;2.72;1.83;;;;;;;;;;4923003;29;20043;-67
2022/10/03 09:06:49;;;;;;;2.40;1.47;;;;;;;;;;4924200;29;20086;-65
2022/10/03 09:09:34;;;;;;;3.17;2.00;;;;;;;;;;4922787;29;20586;-65
2022/10/03 09:11:59;;;;;;;1.30;1.20;;;;;;;;;;4922375;29;20063;-66
2022/10/03 09:14:37;;;;;;;3.00;1.67;;;;;;;;;;4923206;29;20302;-65
2022/10/03 09:17:21;;;;;;;4.60;1.75;;;;;;;;;;4923472;29;20151;-64
2022/10/03 09:20:06;;;;;;;1.95;1.70;;;;;;;;;;4941473;28;20552;-66
2022/10/03 09:22:50;;;;;;;2.33;1.42;;;;;;;;;;4960596;28;20050;-65
2022/10/03 09:25:30;;;;;;;2.38;1.15;;;;;;;;;;4961061;28;20509;-64
2022/10/03 09:28:08;;;;;;;2.47;1.50;;;;;;;;;;4958574;28;20129;-65
2022/10/03 09:30:33;;;;;;;4.20;1.63;;;;;;;;;;4960918;28;20042;-66
2022/10/03 09:32:58;;;;;;;2.08;1.60;;;;;;;;;;4961125;28;20142;-63
2022/10/03 09:35:42;;;;;;;2.25;1.30;;;;;;;;;;4959314;28;20070;-65
2022/10/03 09:38:13;;;;;;;1.80;1.63;;;;;;;;;;4959692;28;20027;-63
2022/10/03 09:40:38;;;;;;;2.10;1.42;;;;;;;;;;4961072;28;20026;-64
2022/10/03 09:43:16;;;;;;;2.15;1.73;;;;;;;;;;4958562;28;20035;-66
2022/10/03 09:45:58;;;;;;;4.57;1.80;;;;;;;;;;4960611;28;20165;-64
2022/10/03 09:48:38;;;;;;;3.30;1.58;;;;;;;;;;4959752;28;20545;-63
2022/10/03 09:51:09;;;;;;;2.50;1.48;;;;;;;;;;4963401;28;20105;-64
2022/10/03 09:53:53;;;;;;;2.28;1.50;;;;;;;;;;4962168;28;20052;-64
2022/10/03 09:56:19;;;;;;;3.42;1.70;;;;;;;;;;4960316;28;20023;-64
2022/10/03 09:58:55;;;;;;;5.32;1.70;;;;;;;;;;4961123;28;20479;-65
2022/10/03 10:01:23;;;;;;;4.20;2.20;;;;;;;;;;4964055;28;20132;-65
2022/10/03 10:03:54;;;;;;;4.15;1.77;;;;;;;;;;4962081;28;20624;-66
2022/10/03 10:06:32;;;;;;;2.10;1.80;;;;;;;;;;4953460;28;20166;-65
2022/10/03 10:08:57;;;;;;;4.07;1.65;;;;;;;;;;4958754;28;20098;-64
2022/10/03 10:11:25;;;;;;;2.13;1.90;;;;;;;;;;4957605;28;20063;-64
2022/10/03 10:14:09;;;;;;;6.13;1.90;;;;;;;;;;4958163;28;20057;-63
2022/10/03 10:16:34;;;;;;;4.13;2.28;;;;;;;;;;4960092;28;20065;-64
2022/10/03 10:19:09;;;;;;;3.22;1.98;;;;;;;;;;4961433;28;20035;-64
2022/10/03 10:21:51;;;;;;;3.25;1.95;;;;;;;;;;4959951;28;20629;-67
2022/10/03 10:24:37;;;;;;;2.25;1.88;;;;;;;;;;4958947;28;20054;-69
2022/10/03 10:27:21;;;;;;;3.33;1.90;;;;;;;;;;4957504;28;20042;-69
2022/10/03 10:30:08;;;;;;;1.98;1.88;;;;;;;;;;4960308;28;20528;-65
2022/10/03 10:32:52;;;;;;;1.85;1.65;;;;;;;;;;4960336;28;20042;-66
2022/10/03 10:35:35;;;;;;;3.92;2.10;;;;;;;;;;4961776;28;20097;-68
2022/10/03 10:38:24;;;;;;;5.75;2.20;;;;;;;;;;4961974;28;20063;-69
2022/10/03 10:40:56;;;;;;;5.88;2.20;;;;;;;;;;4961743;28;20026;-69
2022/10/03 10:43:30;;;;;;;3.92;1.88;;;;;;;;;;4958714;28;20414;-65
2022/10/03 10:45:59;;;;;;;4.15;2.05;;;;;;;;;;4960686;28;20023;-66
2022/10/03 10:48:27;;;;;;;3.35;1.80;;;;;;;;;;4960295;28;20031;-69
2022/10/03 10:50:54;;;;;;;2.05;1.85;;;;;;;;;;4960320;28;20281;-65
2022/10/03 10:53:39;;;;;;;2.53;1.83;;;;;;;;;;4960297;28;20054;-68
2022/10/03 10:56:23;;;;;;;4.78;1.98;;;;;;;;;;4959515;28;20473;-65
2022/10/03 10:58:48;;;;;;;1.70;1.60;;;;;;;;;;4963090;28;20087;-67
2022/10/03 11:01:32;;;;;;;2.33;2.20;;;;;;;;;;4961918;28;20418;-66
2022/10/03 11:03:58;;;;;;;1.52;1.38;;;;;;;;;;4960159;28;20037;-67
2022/10/03 11:06:26;;;;;;;3.83;2.10;;;;;;;;;;4958932;28;20031;-68
2022/10/03 11:08:51;;;;;;;3.97;1.63;;;;;;;;;;4966959;28;20035;-67
2022/10/03 11:11:40;;;;;;;5.65;1.92;;;;;;;;;;4963074;28;20059;-67
2022/10/03 11:14:15;;;;;;;3.03;1.85;;;;;;;;;;4963256;28;20058;-66
2022/10/03 11:16:59;;;;;;;3.22;1.55;;;;;;;;;;4963063;28;20035;-66
2022/10/03 11:19:33;;;;;;;2.70;2.53;;;;;;;;;;4968754;28;20097;-66
2022/10/03 11:22:17;;;;;;;1.90;1.73;;;;;;;;;;4967182;28;20034;-67
2022/10/03 11:25:06;;;;;;;2.65;1.73;;;;;;;;;;4967406;28;20042;-68
2022/10/03 11:27:50;;;;;;;3.42;2.17;;;;;;;;;;4961441;28;20051;-67
2022/10/03 11:30:15;;;;;;;4.15;1.60;;;;;;;;;;4967239;28;20029;-66
2022/10/03 11:33:00;;;;;;;4.53;2.00;;;;;;;;;;4968027;28;20487;-68
2022/10/03 11:35:32;;;;;;;3.47;1.85;;;;;;;;;;4970420;28;20027;-66
2022/10/03 11:38:06;;;;;;;4.72;1.42;;;;;;;;;;4972274;28;20026;-67
2022/10/03 11:40:40;;;;;;;2.33;1.90;;;;;;;;;;4972071;28;20086;-67
2022/10/03 11:43:05;;;;;;;2.90;1.85;;;;;;;;;;4968704;28;20277;-70
2022/10/03 11:45:48;;;;;;;2.10;1.85;;;;;;;;;;4963240;28;20406;-70
2022/10/03 11:48:32;;;;;;;1.52;1.38;;;;;;;;;;4955167;28;20035;-68
2022/10/03 11:51:17;;;;;;;2.85;1.50;;;;;;;;;;4962633;28;20046;-71
2022/10/03 11:53:54;;;;;;;6.80;1.90;;;;;;;;;;4963836;28;20062;-70
2022/10/03 11:56:23;;;;;;;2.45;1.48;;;;;;;;;;4960569;28;20118;-70
2022/10/03 11:58:55;;;;;;;4.40;1.98;;;;;;;;;;4963555;28;20023;-70
2022/10/03 12:01:43;;;;;;;3.95;1.77;;;;;;;;;;4961567;28;20030;-73
2022/10/03 12:04:08;;;;;;;2.53;1.60;;;;;;;;;;4963410;28;20049;-70
2022/10/03 12:09:46;;;;;;;5.97;2.05;;;;;;;;;;4961645;28;20053;-70
2022/10/03 12:12:26;;;;;;;2.17;1.70;;;;;;;;;;4964382;28;20051;-65
2022/10/03 12:14:53;;;;;;;3.50;1.60;;;;;;;;;;4962745;28;20114;-66
2022/10/03 12:17:35;;;;;;;2.97;1.95;;;;;;;;;;4957460;28;20050;-64
2022/10/03 12:20:23;;;;;;;2.17;1.70;;;;;;;;;;4959107;28;20337;-69
2022/10/03 12:23:08;;;;;;;2.22;1.50;;;;;;;;;;4959172;28;20427;-71
2022/10/03 12:25:35;;;;;;;;;;;;;;;;;;4954426;28;20047;-69
2022/10/03 12:28:03;;;;;;;1.75;1.63;;;;;;;;;;4963315;28;19909;-70
2022/10/03 12:30:50;;;;;;;2.88;1.92;;;;;;;;;;4964596;28;20177;-69
2022/10/03 12:33:20;;;;;;;4.22;1.50;;;;;;;;;;4964496;28;20027;-72
2022/10/03 12:35:49;;;;;;;3.30;1.63;;;;;;;;;;4962602;28;20086;-69
2022/10/03 12:38:17;;;;;;;2.92;1.50;;;;;;;;;;4962159;28;20042;-69
2022/10/03 12:40:48;;;;;;;2.42;1.52;;;;;;;;;;4962631;28;20054;-76
2022/10/03 12:43:34;;;;;;;2.80;2.10;;;;;;;;;;4960214;28;20058;-76
2022/10/03 12:46:02;;;;;;;2.17;1.60;;;;;;;;;;4967418;28;20070;-77
2022/10/03 12:48:33;;;;;;;1.52;1.42;;;;;;;;;;4963392;28;20027;-75
2022/10/03 12:51:19;;;;;;;4.15;1.80;;;;;;;;;;4966057;28;20076;-76
2022/10/03 12:53:44;;;;;;;;;;;;;;;;;;4961593;28;20033;-69
2022/10/03 12:56:24;;;;;;;3.60;2.00;;;;;;;;;;4962395;28;19914;-68
2022/10/03 12:58:52;;;;;;;1.70;1.55;;;;;;;;;;4962924;28;20034;-67
2022/10/03 13:01:20;;;;;;;1.80;1.50;;;;;;;;;;4961582;28;20049;-68
2022/10/03 13:03:54;;;;;;;2.45;1.55;;;;;;;;;;4962288;28;20493;-69
2022/10/03 13:06:41;;;;;;;4.25;1.90;;;;;;;;;;4964540;28;20873;-68
2022/10/03 13:09:12;;;;;;;1.48;1.38;;;;;;;;;;4960744;28;20129;-68
2022/10/03 13:11:56;;;;;;;3.13;1.45;;;;;;;;;;4959090;28;20060;-68
2022/10/03 13:14:42;;;;;;;3.05;1.80;;;;;;;;;;4961807;28;20031;-68
2022/10/03 13:17:07;;;;;;;2.47;1.55;;;;;;;;;;4962698;28;20031;-69
2022/10/03 13:20:08;;;;;;;2.38;1.60;;;;;;;;;;4961064;28;20101;-69
2022/10/03 13:22:43;;;;;;;3.03;1.55;;;;;;;;;;4909509;29;20587;-69
2022/10/03 13:25:17;;;;;;;2.22;1.40;;;;;;;;;;4908554;29;20052;-69
2022/10/03 13:27:58;;;;;;;5.95;2.10;;;;;;;;;;4912057;29;20055;-67
2022/10/03 13:30:24;;;;;;;3.83;1.40;;;;;;;;;;4910639;29;20782;-70
2022/10/03 13:32:50;;;;;;;2.78;1.45;;;;;;;;;;4909030;29;20040;-70
2022/10/03 13:38:12;;;;;;;1.55;1.40;;;;;;;;;;4909716;29;20537;-69
2022/10/03 13:40:41;;;;;;;1.20;1.20;;;;;;;;;;4907634;29;20032;-69
2022/10/03 13:43:10;;;;;;;2.22;1.90;;;;;;;;;;4906062;29;20044;-70
2022/10/03 13:45:39;;;;;;;1.25;1.25;;;;;;;;;;4908808;29;20043;-70
2022/10/03 13:48:06;;;;;;;1.27;1.17;;;;;;;;;;4909903;29;20059;-69
2022/10/03 13:50:40;;;;;;;4.75;1.13;;;;;;;;;;4902833;29;20139;-70
2022/10/03 13:53:10;;;;;;;1.63;1.38;;;;;;;;;;4905514;29;20024;-69
2022/10/03 13:55:46;;;;;;;2.05;1.60;;;;;;;;;;4910505;28;20178;-69
2022/10/03 13:58:31;;;;;;;3.13;1.15;;;;;;;;;;4958344;28;20105;-69
2022/10/03 14:01:02;;;;;;;1.30;1.20;;;;;;;;;;4960802;28;20050;-68
2022/10/03 14:03:37;;;;;;;2.70;1.20;;;;;;;;;;4960553;28;20449;-69
2022/10/03 14:06:09;;;;;;;1.90;1.30;;;;;;;;;;4958623;28;20026;-68
2022/10/03 14:08:35;;;;;;;1.50;1.40;;;;;;;;;;4960399;28;20038;-68
2022/10/03 14:11:21;;;;;;;2.88;1.35;;;;;;;;;;4957073;28;20356;-69
2022/10/03 14:13:46;;;;;;;1.27;1.15;;;;;;;;;;4960614;28;20089;-68
2022/10/03 14:16:27;;;;;;;2.30;1.52;;;;;;;;;;4961483;28;20030;-69
2022/10/03 14:19:05;;;;;;;2.97;1.48;;;;;;;;;;4961930;28;20573;-69
2022/10/03 14:21:36;;;;;;;3.33;1.60;;;;;;;;;;4960448;28;20558;-68
2022/10/03 14:24:01;;;;;;;2.70;1.55;;;;;;;;;;4957689;28;20146;-71
2022/10/03 14:26:38;;;;;;;2.58;1.60;;;;;;;;;;4960441;28;20041;-69
2022/10/03 14:29:09;;;;;;;1.35;1.20;;;;;;;;;;4959691;28;20018;-68
2022/10/03 14:31:40;;;;;;;2.85;1.88;;;;;;;;;;4959698;28;20062;-68
2022/10/03 14:34:14;;;;;;;6.18;2.08;;;;;;;;;;4960485;28;20088;-68
2022/10/03 14:36:49;;;;;;;2.30;1.33;;;;;;;;;;4961000;28;20030;-68
2022/10/03 14:39:27;;;;;;;2.03;1.45;;;;;;;;;;4960158;28;20038;-70
2022/10/03 14:42:25;;;;;;;2.08;1.30;;;;;;;;;;4961723;28;20042;-70
2022/10/03 14:44:54;;;;;;;1.40;1.30;;;;;;;;;;4941775;28;20096;-70
2022/10/03 14:47:20;;;;;;;1.60;1.50;;;;;;;;;;4963696;28;20336;-70
2022/10/03 14:49:48;;;;;;;1.50;1.40;;;;;;;;;;4963590;28;20613;-68
2022/10/03 14:52:32;;;;;;;3.10;1.92;;;;;;;;;;4966520;28;20030;-64
2022/10/03 14:55:01;;;;;;;3.42;2.08;;;;;;;;;;4963541;28;20035;-63
2022/10/03 14:57:31;;;;;;;3.15;1.40;;;;;;;;;;4962213;28;20030;-63
2022/10/03 14:59:57;;;;;;;1.83;1.70;;;;;;;;;;4963911;28;20023;-63
2022/10/03 15:02:28;;;;;;;3.25;1.58;;;;;;;;;;4962617;28;20129;-62
2022/10/03 15:04:54;;;;;;;3.15;1.73;;;;;;;;;;4964078;28;20030;-66
2022/10/03 15:07:32;;;;;;;2.22;2.10;;;;;;;;;;4961801;28;20480;-63
2022/10/03 15:09:59;;;;;;;2.17;1.40;;;;;;;;;;4976941;28;20035;-63
2022/10/03 15:12:27;;;;;;;1.48;1.38;;;;;;;;;;4965131;28;20070;-62
2022/10/03 15:15:12;;;;;;;3.08;2.25;;;;;;;;;;4962278;28;20042;-64
2022/10/03 15:17:59;;;;;;;4.55;1.45;;;;;;;;;;4962754;28;20031;-65
2022/10/03 15:20:33;;;;;;;2.05;1.38;;;;;;;;;;4965500;28;20041;-62
2022/10/03 15:23:02;;;;;;;1.77;1.50;;;;;;;;;;4961830;28;20109;-61
2022/10/03 15:25:38;;;;;;;2.05;1.85;;;;;;;;;;4961774;28;20459;-62
2022/10/03 15:28:11;;;;;;;4.15;1.77;;;;;;;;;;4960669;28;20035;-64
2022/10/03 15:30:38;;;;;;;3.40;1.85;;;;;;;;;;4962228;28;20135;-63
2022/10/03 15:33:15;;;;;;;3.97;1.52;;;;;;;;;;4962272;28;20041;-62
2022/10/03 15:35:42;;;;;;;2.22;1.90;;;;;;;;;;4962463;28;20069;-62
2022/10/03 15:38:11;;;;;;;1.58;1.40;;;;;;;;;;4961264;28;20031;-63
2022/10/03 15:40:38;;;;;;;2.53;2.20;;;;;;;;;;4960409;28;20030;-68
2022/10/03 15:43:12;;;;;;;1.67;1.58;;;;;;;;;;4960944;28;20027;-72
2022/10/03 15:45:38;;;;;;;4.53;2.00;;;;;;;;;;4960341;28;20211;-72
2022/10/03 15:48:06;;;;;;;5.18;1.65;;;;;;;;;;4959259;28;20117;-71